createdAt,value
2018-11-23T00:01:37.695Z,50.50
2018-11-23T00:04:06.219Z,51.47
2018-11-23T00:06:34.845Z,51.50
2018-11-23T00:09:03.416Z,50.87
2018-11-23T00:11:32.452Z,48.57
2018-11-23T00:14:00.902Z,45.53
2018-11-23T00:16:29.383Z,48.70
2018-11-23T00:18:57.873Z,52.73
2018-11-23T00:21:26.533Z,54.77
2018-11-23T00:23:55.664Z,54.73
2018-11-23T00:26:25.050Z,53.27
2018-11-23T00:28:53.854Z,50.67
2018-11-23T00:31:22.665Z,54.93
2018-11-23T00:33:51.374Z,53.57
2018-11-23T00:36:19.837Z,51.30
2018-11-23T00:38:48.297Z,53.93
2018-11-23T00:41:17.021Z,54.37
2018-11-23T00:43:45.845Z,54.20
2018-11-23T00:46:14.866Z,53.33
2018-11-23T00:48:44.086Z,50.83
2018-11-23T00:51:12.562Z,53.30
2018-11-23T00:53:41.271Z,54.23
2018-11-23T00:56:09.743Z,51.03
2018-11-23T00:58:38.203Z,50.57
2018-11-23T01:01:07.235Z,54.50
2018-11-23T01:03:35.737Z,48.17
2018-11-23T01:06:05.141Z,48.13
2018-11-23T01:08:33.606Z,51.20
2018-11-23T01:11:02.078Z,49.00
2018-11-23T01:13:31.202Z,51.10
2018-11-23T01:15:59.642Z,51.73
2018-11-23T01:18:28.107Z,51.83
2018-11-23T01:20:56.538Z,50.23
2018-11-23T01:23:25.121Z,46.23
2018-11-23T01:25:53.630Z,47.47
2018-11-23T01:28:22.516Z,43.20
2018-11-23T01:30:50.989Z,51.70
2018-11-23T01:33:19.602Z,47.53
2018-11-23T01:35:48.104Z,49.10
2018-11-23T01:38:16.556Z,50.33
2018-11-23T01:40:45.005Z,47.67
2018-11-23T01:43:13.485Z,49.60
2018-11-23T01:45:41.893Z,51.20
2018-11-23T01:48:10.353Z,45.93
2018-11-23T01:50:38.890Z,45.07
2018-11-23T01:53:07.339Z,45.27
2018-11-23T01:55:35.826Z,49.63
2018-11-23T01:58:04.311Z,51.87
2018-11-23T02:00:32.802Z,49.83
2018-11-23T02:03:01.355Z,49.23
2018-11-23T02:05:29.917Z,48.87
2018-11-23T02:07:58.354Z,50.07
2018-11-23T02:10:26.821Z,49.37
2018-11-23T02:12:55.339Z,46.73
2018-11-23T02:15:24.118Z,46.43
2018-11-23T02:17:52.813Z,44.90
2018-11-23T02:20:22.033Z,43.60
2018-11-23T02:22:50.789Z,42.83
2018-11-23T02:25:19.265Z,44.93
2018-11-23T02:27:47.850Z,39.53
2018-11-23T02:30:18.929Z,43.30
2018-11-23T02:32:47.886Z,39.13
2018-11-23T02:35:16.926Z,43.67
2018-11-23T02:37:45.416Z,43.00
2018-11-23T02:40:15.223Z,41.20
2018-11-23T02:42:43.908Z,43.43
2018-11-23T02:45:15.706Z,39.37
2018-11-23T02:47:44.971Z,39.97
2018-11-23T02:50:13.573Z,39.53
2018-11-23T02:52:42.540Z,43.60
2018-11-23T02:55:12.275Z,40.63
2018-11-23T02:57:40.732Z,39.60
2018-11-23T03:00:17.863Z,42.47
2018-11-23T03:02:46.439Z,29.03
2018-11-23T03:05:16.934Z,39.03
2018-11-23T03:07:45.576Z,38.97
2018-11-23T03:10:15.054Z,38.97
2018-11-23T03:12:44.259Z,38.90
2018-11-23T03:15:14.649Z,38.17
2018-11-23T03:17:43.890Z,40.43
2018-11-23T03:20:17.488Z,41.00
2018-11-23T03:22:46.000Z,39.67
2018-11-23T03:25:14.949Z,40.43
2018-11-23T03:27:43.480Z,40.13
2018-11-23T03:30:16.361Z,40.33
2018-11-23T03:32:45.771Z,39.27
2018-11-23T03:35:14.350Z,41.07
2018-11-23T03:37:43.217Z,42.13
2018-11-23T03:40:11.855Z,39.60
2018-11-23T03:42:40.836Z,39.73
2018-11-23T03:45:10.945Z,39.67
2018-11-23T03:47:39.940Z,41.00
2018-11-23T03:50:10.352Z,38.57
2018-11-23T03:52:39.242Z,40.70
2018-11-23T03:55:07.809Z,38.40
2018-11-23T03:57:36.249Z,37.40
2018-11-23T04:00:09.065Z,40.30
2018-11-23T04:02:37.494Z,39.30
2018-11-23T04:05:06.936Z,40.83
2018-11-23T04:07:35.402Z,37.40
2018-11-23T04:10:03.969Z,38.63
2018-11-23T04:12:32.449Z,40.43
2018-11-23T04:15:00.877Z,39.73
2018-11-23T04:17:29.327Z,40.90
2018-11-23T04:19:57.796Z,41.27
2018-11-23T04:22:26.244Z,40.33
2018-11-23T04:24:54.659Z,35.77
2018-11-23T04:27:23.254Z,34.80
2018-11-23T04:29:51.776Z,38.73
2018-11-23T04:32:20.639Z,37.53
2018-11-23T04:34:49.174Z,35.93
2018-11-23T04:37:17.633Z,39.10
2018-11-23T04:39:46.071Z,37.33
2018-11-23T04:42:14.582Z,35.87
2018-11-23T04:44:43.146Z,38.33
2018-11-23T04:47:11.603Z,36.40
2018-11-23T04:49:40.181Z,39.53
2018-11-23T04:52:08.683Z,35.77
2018-11-23T04:54:37.333Z,37.30
2018-11-23T04:57:06.085Z,38.30
2018-11-23T04:59:34.563Z,39.43
2018-11-23T05:02:03.049Z,39.17
2018-11-23T05:04:31.543Z,37.87
2018-11-23T05:07:00.060Z,30.80
2018-11-23T05:09:28.630Z,38.83
2018-11-23T05:11:57.064Z,39.10
2018-11-23T05:14:25.479Z,42.37
2018-11-23T05:16:53.983Z,40.30
2018-11-23T05:19:22.486Z,39.20
2018-11-23T05:21:51.060Z,33.23
2018-11-23T05:24:19.492Z,40.17
2018-11-23T05:26:48.367Z,39.53
2018-11-23T05:29:17.435Z,40.43
2018-11-23T05:31:45.875Z,39.17
2018-11-23T05:34:14.661Z,36.87
2018-11-23T05:36:43.193Z,39.13
2018-11-23T05:39:11.682Z,39.30
2018-11-23T05:41:40.735Z,40.57
2018-11-23T05:44:09.221Z,37.63
2018-11-23T05:46:37.695Z,38.27
2018-11-23T05:49:06.916Z,37.40
2018-11-23T05:51:35.376Z,35.27
2018-11-23T05:54:04.140Z,36.57
2018-11-23T05:56:32.673Z,31.73
2018-11-23T05:59:01.146Z,37.90
2018-11-23T06:01:29.755Z,38.77
2018-11-23T06:04:04.870Z,38.53
2018-11-23T06:06:33.336Z,36.47
2018-11-23T06:09:01.860Z,36.97
2018-11-23T06:11:30.334Z,37.60
2018-11-23T06:13:58.908Z,39.33
2018-11-23T06:16:27.866Z,38.93
2018-11-23T06:18:56.363Z,35.73
2018-11-23T06:21:24.830Z,39.90
2018-11-23T06:23:53.802Z,43.93
2018-11-23T06:26:24.445Z,40.43
2018-11-23T06:28:52.950Z,40.87
2018-11-23T06:31:21.406Z,43.60
2018-11-23T06:33:50.515Z,40.70
2018-11-23T06:36:19.079Z,39.50
2018-11-23T06:38:47.592Z,41.57
2018-11-23T06:41:16.069Z,41.83
2018-11-23T06:43:44.534Z,39.13
2018-11-23T06:46:13.371Z,38.67
2018-11-23T06:48:41.803Z,40.37
2018-11-23T06:51:10.366Z,40.73
2018-11-23T06:53:38.886Z,42.47
2018-11-23T06:56:07.419Z,42.63
2018-11-23T06:58:35.901Z,45.03
2018-11-23T07:01:04.543Z,43.53
2018-11-23T07:03:33.012Z,41.63
2018-11-23T07:06:01.566Z,32.73
2018-11-23T07:08:30.053Z,42.93
2018-11-23T07:10:59.583Z,45.17
2018-11-23T07:13:28.873Z,46.30
2018-11-23T07:15:57.397Z,46.73
2018-11-23T07:18:25.893Z,41.83
2018-11-23T07:20:54.342Z,35.27
2018-11-23T07:23:22.979Z,43.13
2018-11-23T07:25:51.668Z,41.43
2018-11-23T07:28:20.281Z,31.20
2018-11-23T07:30:48.819Z,37.80
2018-11-23T07:33:17.355Z,37.00
2018-11-23T07:35:45.795Z,48.63
2018-11-23T07:38:14.287Z,47.00
2018-11-23T07:40:54.622Z,41.50
2018-11-23T07:43:23.067Z,40.40
2018-11-23T07:45:51.604Z,36.97
2018-11-23T07:48:20.051Z,45.63
2018-11-23T07:50:48.593Z,41.40
2018-11-23T07:53:17.050Z,39.43
2018-11-23T07:55:45.497Z,44.57
2018-11-23T07:58:13.960Z,46.37
2018-11-23T08:00:42.569Z,43.23
2018-11-23T08:03:11.028Z,40.30
2018-11-23T08:05:39.470Z,43.50
2018-11-23T08:08:07.960Z,38.87
2018-11-23T08:10:35.769Z,42.27
2018-11-23T08:13:04.484Z,45.20
2018-11-23T08:15:33.109Z,45.77
2018-11-23T08:18:01.633Z,43.93
2018-11-23T08:20:30.172Z,41.37
2018-11-23T08:22:58.648Z,40.87
2018-11-23T08:25:27.281Z,39.53
2018-11-23T08:27:56.676Z,40.33
2018-11-23T08:30:26.550Z,43.27
2018-11-23T08:32:55.287Z,40.00
2018-11-23T08:35:23.901Z,42.63
2018-11-23T08:37:52.712Z,43.23
2018-11-23T08:40:22.912Z,42.03
2018-11-23T08:42:52.296Z,40.47
2018-11-23T08:45:23.139Z,40.17
2018-11-23T08:47:51.711Z,41.40
2018-11-23T08:50:27.894Z,40.60
2018-11-23T08:52:56.415Z,40.13
2018-11-23T08:55:25.065Z,37.50
2018-11-23T08:57:53.672Z,41.20
2018-11-23T09:00:24.511Z,38.20
2018-11-23T09:02:54.493Z,41.10
2018-11-23T09:05:22.981Z,38.33
2018-11-23T09:07:52.713Z,42.43
2018-11-23T09:10:23.517Z,40.33
2018-11-23T09:12:54.727Z,41.17
2018-11-23T09:15:23.189Z,40.27
2018-11-23T09:17:51.781Z,40.93
2018-11-23T09:20:20.548Z,44.30
2018-11-23T09:22:48.994Z,34.90
2018-11-23T09:25:18.764Z,41.33
2018-11-23T09:27:47.206Z,40.37
2018-11-23T09:30:18.865Z,41.27
2018-11-23T09:32:47.999Z,39.67
2018-11-23T09:35:16.461Z,42.63
2018-11-23T09:37:45.368Z,40.83
2018-11-23T09:40:16.446Z,44.90
2018-11-23T09:42:44.932Z,47.47
2018-11-23T09:45:15.840Z,43.93
2018-11-23T09:47:45.404Z,42.00
2018-11-23T09:50:15.318Z,41.87
2018-11-23T09:52:45.778Z,42.63
2018-11-23T09:55:14.326Z,46.30
2018-11-23T09:57:42.841Z,44.67
2018-11-23T10:00:13.863Z,42.57
2018-11-23T10:02:42.701Z,42.23
2018-11-23T10:05:12.019Z,40.17
2018-11-23T10:07:41.166Z,42.23
2018-11-23T10:10:10.899Z,40.93
2018-11-23T10:12:39.657Z,41.50
2018-11-23T10:15:09.014Z,42.77
2018-11-23T10:17:37.745Z,41.80
2018-11-23T10:20:09.275Z,39.40
2018-11-23T10:22:37.875Z,52.63
2018-11-23T10:25:07.681Z,38.27
2018-11-23T10:27:36.212Z,42.20
2018-11-23T10:30:04.781Z,41.00
2018-11-23T10:32:33.237Z,41.13
2018-11-23T10:35:01.695Z,41.57
2018-11-23T10:37:30.961Z,44.30
2018-11-23T10:39:59.422Z,41.43
2018-11-23T10:42:27.955Z,40.80
2018-11-23T10:44:56.482Z,39.87
2018-11-23T10:47:25.072Z,42.00
2018-11-23T10:49:53.776Z,40.07
2018-11-23T10:52:22.360Z,41.60
2018-11-23T10:54:50.853Z,43.53
2018-11-23T10:57:19.405Z,44.93
2018-11-23T10:59:47.866Z,41.17
2018-11-23T11:02:21.600Z,40.33
2018-11-23T11:04:57.243Z,39.23
2018-11-23T11:07:25.757Z,38.70
2018-11-23T11:09:54.207Z,41.53
2018-11-23T11:12:22.732Z,42.57
2018-11-23T11:14:51.322Z,40.40
2018-11-23T11:17:19.866Z,37.83
2018-11-23T11:19:48.329Z,39.43
2018-11-23T11:22:16.911Z,39.63
2018-11-23T11:24:45.376Z,40.77
2018-11-23T11:27:13.846Z,45.37
2018-11-23T11:29:42.445Z,39.73
2018-11-23T11:32:11.178Z,39.80
2018-11-23T11:34:39.623Z,38.53
2018-11-23T11:37:08.179Z,41.53
2018-11-23T11:39:36.670Z,40.87
2018-11-23T11:42:05.846Z,42.37
2018-11-23T11:44:34.643Z,42.53
2018-11-23T11:47:03.174Z,42.57
2018-11-23T11:49:32.249Z,39.97
2018-11-23T11:52:00.706Z,39.70
2018-11-23T11:54:29.232Z,41.63
2018-11-23T11:56:57.698Z,39.40
2018-11-23T11:59:26.141Z,39.10
2018-11-23T12:01:54.655Z,41.43
2018-11-23T12:04:23.125Z,43.47
2018-11-23T12:06:51.673Z,40.07
2018-11-23T12:09:20.143Z,40.57
2018-11-23T12:11:48.610Z,42.27
2018-11-23T12:14:17.142Z,42.23
2018-11-23T12:16:45.589Z,38.80
2018-11-23T12:19:14.240Z,42.33
2018-11-23T12:21:42.692Z,40.03
2018-11-23T12:24:11.155Z,41.27
2018-11-23T12:26:40.258Z,42.33
2018-11-23T12:29:08.711Z,36.40
2018-11-23T12:31:37.177Z,43.17
2018-11-23T12:34:05.918Z,42.90
2018-11-23T12:36:34.554Z,38.63
2018-11-23T12:39:03.110Z,39.17
2018-11-23T12:41:31.552Z,41.47
2018-11-23T12:43:59.977Z,39.73
2018-11-23T12:46:28.432Z,41.47
2018-11-23T12:48:56.983Z,39.37
2018-11-23T12:51:25.555Z,39.47
2018-11-23T12:53:54.165Z,38.07
2018-11-23T12:56:22.682Z,39.70
2018-11-23T12:58:51.335Z,45.27
2018-11-23T13:01:19.906Z,41.70
2018-11-23T13:03:48.364Z,39.70
2018-11-23T13:06:16.892Z,39.43
2018-11-23T13:08:45.331Z,40.27
2018-11-23T13:11:13.789Z,39.87
2018-11-23T13:13:43.015Z,39.07
2018-11-23T13:16:11.652Z,42.13
2018-11-23T13:18:40.245Z,42.97
2018-11-23T13:21:08.751Z,42.37
2018-11-23T13:23:37.325Z,45.23
2018-11-23T13:26:06.347Z,43.00
2018-11-23T13:28:34.889Z,42.13
2018-11-23T13:31:03.363Z,42.27
2018-11-23T13:33:31.944Z,40.87
2018-11-23T13:36:00.454Z,48.47
2018-11-23T13:38:29.700Z,43.60
2018-11-23T13:40:58.547Z,39.80
2018-11-23T13:43:27.160Z,42.30
2018-11-23T13:45:55.694Z,42.50
2018-11-23T13:48:24.219Z,41.53
2018-11-23T13:50:52.734Z,45.80
2018-11-23T13:53:21.533Z,42.60
2018-11-23T13:55:50.082Z,46.40
2018-11-23T13:58:18.607Z,42.00
2018-11-23T14:00:47.196Z,44.43
2018-11-23T14:03:15.667Z,40.43
2018-11-23T14:05:44.196Z,45.63
2018-11-23T14:08:13.022Z,42.10
2018-11-23T14:10:41.522Z,44.03
2018-11-23T14:13:11.564Z,47.23
2018-11-23T14:15:38.613Z,46.63
2018-11-23T14:18:07.162Z,45.77
2018-11-23T14:20:35.824Z,47.03
2018-11-23T14:23:04.327Z,44.73
2018-11-23T14:25:32.893Z,47.33
2018-11-23T14:28:01.908Z,46.80
2018-11-23T14:30:32.030Z,46.00
2018-11-23T14:33:01.346Z,47.80
2018-11-23T14:35:30.642Z,48.83
2018-11-23T14:37:59.923Z,47.50
2018-11-23T14:40:28.544Z,47.80
2018-11-23T14:42:57.619Z,46.93
2018-11-23T14:45:28.759Z,49.40
2018-11-23T14:47:58.287Z,45.07
2018-11-23T14:50:28.454Z,45.83
2018-11-23T14:52:57.636Z,46.50
2018-11-23T14:55:26.523Z,47.30
2018-11-23T14:57:55.591Z,44.43
2018-11-23T15:00:27.665Z,45.43
2018-11-23T15:02:57.245Z,47.20
2018-11-23T15:05:25.726Z,45.63
2018-11-23T15:07:54.211Z,47.30
2018-11-23T15:10:24.142Z,47.50
2018-11-23T15:12:53.999Z,47.67
2018-11-23T15:15:28.840Z,50.87
2018-11-23T15:17:58.126Z,50.57
2018-11-23T15:20:29.370Z,47.70
2018-11-23T15:23:00.723Z,47.17
2018-11-23T15:25:31.300Z,50.20
2018-11-23T15:28:00.185Z,50.13
2018-11-23T15:30:32.084Z,53.37
2018-11-23T15:33:00.891Z,52.67
2018-11-23T15:35:30.742Z,54.33
2018-11-23T15:37:59.187Z,52.47
2018-11-23T15:40:28.751Z,52.07
2018-11-23T15:43:01.911Z,50.27
2018-11-23T15:45:31.530Z,49.00
2018-11-23T15:48:00.569Z,50.57
2018-11-23T15:50:30.725Z,48.40
2018-11-23T15:52:59.230Z,48.87
2018-11-23T15:55:30.325Z,52.47
2018-11-23T15:58:03.280Z,50.87
2018-11-23T16:00:34.126Z,49.73
2018-11-23T16:03:02.687Z,50.63
2018-11-23T16:05:31.295Z,47.17
2018-11-23T16:08:01.452Z,53.10
2018-11-23T16:10:34.192Z,51.27
2018-11-23T16:13:06.819Z,50.47
2018-11-23T16:15:33.004Z,53.87
2018-11-23T16:18:02.183Z,56.53
2018-11-23T16:20:33.368Z,48.37
2018-11-23T16:23:04.094Z,50.83
2018-11-23T16:25:32.767Z,48.20
2018-11-23T16:28:02.652Z,51.60
2018-11-23T16:30:32.663Z,50.73
2018-11-23T16:33:02.903Z,50.23
2018-11-23T16:35:33.739Z,53.40
2018-11-23T16:38:03.777Z,55.67
2018-11-23T16:40:33.455Z,51.83
2018-11-23T16:43:02.775Z,51.07
2018-11-23T16:45:32.538Z,50.93
2018-11-23T16:48:02.286Z,51.50
2018-11-23T16:50:31.109Z,54.00
2018-11-23T16:53:00.669Z,50.67
2018-11-23T16:55:29.617Z,48.67
2018-11-23T16:57:59.539Z,49.60
2018-11-23T17:00:32.349Z,49.93
2018-11-23T17:03:02.646Z,51.13
2018-11-23T17:05:32.749Z,50.07
2018-11-23T17:08:01.329Z,49.50
2018-11-23T17:10:29.900Z,52.77
2018-11-23T17:12:59.278Z,49.70
2018-11-23T17:15:28.888Z,49.77
2018-11-23T17:17:57.365Z,51.00
2018-11-23T17:20:27.233Z,50.70
2018-11-23T17:22:57.190Z,52.60
2018-11-23T17:25:26.683Z,50.77
2018-11-23T17:27:56.401Z,53.00
2018-11-23T17:30:26.199Z,50.83
2018-11-23T17:32:54.957Z,57.90
2018-11-23T17:35:23.685Z,54.20
2018-11-23T17:37:52.379Z,53.20
2018-11-23T17:40:22.397Z,49.83
2018-11-23T17:42:50.961Z,50.20
2018-11-23T17:45:21.329Z,48.67
2018-11-23T17:47:50.496Z,52.33
2018-11-23T17:50:20.533Z,48.20
2018-11-23T17:52:49.531Z,50.60
2018-11-23T17:55:18.000Z,47.80
2018-11-23T17:57:47.100Z,51.23
2018-11-23T18:00:19.904Z,50.97
2018-11-23T18:02:49.107Z,50.67
2018-11-23T18:05:18.327Z,49.53
2018-11-23T18:07:47.403Z,51.77
2018-11-23T18:10:19.662Z,49.97
2018-11-23T18:12:48.676Z,49.27
2018-11-23T18:15:19.496Z,50.43
2018-11-23T18:17:48.700Z,49.27
2018-11-23T18:20:24.525Z,50.20
2018-11-23T18:22:54.107Z,49.60
2018-11-23T18:25:27.071Z,47.20
2018-11-23T18:28:00.529Z,48.40
2018-11-23T18:30:31.113Z,49.10
2018-11-23T18:33:00.262Z,50.57
2018-11-23T18:35:28.825Z,48.20
2018-11-23T18:37:57.272Z,47.57
2018-11-23T18:40:25.836Z,46.20
2018-11-23T18:42:54.284Z,48.63
2018-11-23T18:45:23.724Z,49.00
2018-11-23T18:47:52.354Z,49.70
2018-11-23T18:50:20.819Z,46.07
2018-11-23T18:52:49.315Z,49.33
2018-11-23T18:55:18.519Z,48.07
2018-11-23T18:57:46.570Z,47.77
2018-11-23T19:00:16.006Z,47.43
2018-11-23T19:02:45.530Z,48.00
2018-11-23T19:05:17.339Z,47.07
2018-11-23T19:07:45.836Z,50.80
2018-11-23T19:10:14.865Z,48.13
2018-11-23T19:12:43.964Z,49.27
2018-11-23T19:15:15.681Z,45.30
2018-11-23T19:17:44.442Z,46.23
2018-11-23T19:20:17.156Z,49.27
2018-11-23T19:22:46.641Z,51.00
2018-11-23T19:25:15.234Z,53.73
2018-11-23T19:27:43.734Z,50.27
2018-11-23T19:30:15.483Z,48.97
2018-11-23T19:32:43.956Z,49.40
2018-11-23T19:35:12.564Z,50.53
2018-11-23T19:37:41.104Z,49.37
2018-11-23T19:40:11.637Z,49.97
2018-11-23T19:42:40.175Z,50.53
2018-11-23T19:45:10.831Z,48.50
2018-11-23T19:47:39.374Z,49.73
2018-11-23T19:50:11.725Z,48.80
2018-11-23T19:52:40.489Z,52.07
2018-11-23T19:55:09.708Z,49.80
2018-11-23T19:57:38.237Z,47.43
2018-11-23T20:00:25.357Z,46.47
2018-11-23T20:02:53.943Z,48.40
2018-11-23T20:05:22.659Z,49.83
2018-11-23T20:07:52.369Z,48.83
2018-11-23T20:10:21.598Z,50.57
2018-11-23T20:12:52.236Z,49.50
2018-11-23T20:15:20.799Z,48.83
2018-11-23T20:17:55.650Z,48.73
2018-11-23T20:20:24.142Z,47.93
2018-11-23T20:22:52.653Z,48.73
2018-11-23T20:25:21.341Z,49.57
2018-11-23T20:27:50.899Z,49.03
2018-11-23T20:30:20.018Z,48.70
2018-11-23T20:32:48.616Z,48.43
2018-11-23T20:35:20.240Z,46.17
2018-11-23T20:37:49.121Z,46.70
2018-11-23T20:40:20.732Z,49.17
2018-11-23T20:42:49.365Z,46.87
2018-11-23T20:45:17.945Z,48.47
2018-11-23T20:47:46.519Z,46.67
2018-11-23T20:50:15.905Z,46.23
2018-11-23T20:52:44.514Z,47.17
2018-11-23T20:55:14.327Z,47.10
2018-11-23T20:57:43.035Z,47.13
2018-11-23T21:00:16.310Z,48.03
2018-11-23T21:02:45.324Z,46.47
2018-11-23T21:05:14.814Z,47.70
2018-11-23T21:07:43.345Z,48.20
2018-11-23T21:10:20.291Z,47.90
2018-11-23T21:12:44.401Z,48.23
2018-11-23T21:15:21.319Z,45.43
2018-11-23T21:17:49.781Z,46.93
2018-11-23T21:20:18.280Z,48.43
2018-11-23T21:22:46.768Z,48.97
2018-11-23T21:25:15.328Z,45.73
2018-11-23T21:27:43.763Z,46.87
2018-11-23T21:30:17.776Z,46.20
2018-11-23T21:32:46.282Z,46.17
2018-11-23T21:35:14.935Z,47.80
2018-11-23T21:37:43.416Z,45.77
2018-11-23T21:40:13.679Z,47.70
2018-11-23T21:42:42.243Z,47.17
2018-11-23T21:45:11.959Z,49.50
2018-11-23T21:47:40.493Z,50.03
2018-11-23T21:50:13.061Z,50.50
2018-11-23T21:52:41.647Z,50.23
2018-11-23T21:55:14.061Z,49.73
2018-11-23T21:57:42.594Z,49.67
2018-11-23T22:00:13.041Z,49.50
2018-11-23T22:02:41.589Z,47.63
2018-11-23T22:05:10.410Z,48.47
2018-11-23T22:07:38.892Z,49.83
2018-11-23T22:10:12.766Z,49.73
2018-11-23T22:12:41.234Z,48.97
2018-11-23T22:15:12.033Z,50.13
2018-11-23T22:17:40.499Z,46.60
2018-11-23T22:20:13.087Z,50.63
2018-11-23T22:22:41.541Z,49.03
2018-11-23T22:25:11.116Z,48.50
2018-11-23T22:27:39.594Z,50.47
2018-11-23T22:30:12.464Z,49.87
2018-11-23T22:32:40.945Z,49.87
2018-11-23T22:35:10.424Z,48.73
2018-11-23T22:37:38.986Z,48.00
2018-11-23T22:40:13.242Z,48.40
2018-11-23T22:42:43.748Z,49.83
2018-11-23T22:45:13.550Z,47.70
2018-11-23T22:47:42.023Z,47.87
2018-11-23T22:50:12.726Z,47.40
2018-11-23T22:52:41.259Z,45.83
2018-11-23T22:55:11.759Z,49.23
2018-11-23T22:57:40.476Z,48.97
2018-11-23T23:00:22.285Z,50.63
2018-11-23T23:02:50.893Z,48.03
2018-11-23T23:05:22.223Z,49.63
2018-11-23T23:07:50.731Z,49.67
2018-11-23T23:10:19.285Z,47.00
2018-11-23T23:12:48.060Z,49.00
2018-11-23T23:15:16.825Z,47.37
2018-11-23T23:17:45.576Z,51.63
2018-11-23T23:20:15.408Z,49.80
2018-11-23T23:22:43.957Z,52.47
2018-11-23T23:25:13.011Z,49.30
2018-11-23T23:27:41.538Z,48.60
2018-11-23T23:30:12.070Z,51.30
2018-11-23T23:32:40.731Z,46.63
2018-11-23T23:35:10.132Z,43.97
2018-11-23T23:37:38.843Z,45.87
2018-11-23T23:40:09.732Z,45.57
2018-11-23T23:42:38.832Z,46.67
2018-11-23T23:45:11.550Z,44.50
2018-11-23T23:47:40.053Z,44.97
2018-11-23T23:50:12.525Z,46.70
2018-11-23T23:52:41.056Z,45.77
2018-11-23T23:55:10.135Z,42.80
2018-11-23T23:57:39.582Z,46.63
